Time;durP1;ratioP1;P1;durP2;ratioP2;P2;SDS_P1;SDS_P2;PMS_P1;PMS_P2;Temp;Humidity;BMP_temperature;BMP_pressure;BME280_temperature;BME280_humidity;BME280_pressure;Samples;Min_cycle;Max_cycle;Signal;HPM_P1;HPM_P2
2023/08/13 00:00:16;;;;;;;5.15;3.20;;;18.60;99.90;;;;;;4996957;28;20085;-72
2023/08/13 00:02:45;;;;;;;4.80;3.25;;;18.60;99.90;;;;;;4996446;28;20036;-72
2023/08/13 00:05:11;;;;;;;3.97;3.13;;;18.50;99.90;;;;;;4995988;28;20034;-72
2023/08/13 00:07:37;;;;;;;5.38;3.33;;;18.50;99.90;;;;;;4997265;28;20394;-72
2023/08/13 00:10:04;;;;;;;5.00;3.10;;;18.60;99.90;;;;;;4995948;28;20393;-73
2023/08/13 00:12:30;;;;;;;4.60;3.22;;;18.50;99.90;;;;;;4996947;28;20030;-72
2023/08/13 00:14:56;;;;;;;5.28;3.33;;;18.60;99.90;;;;;;4996548;28;20065;-72
2023/08/13 00:17:22;;;;;;;4.28;3.28;;;18.60;99.90;;;;;;4996123;28;20026;-72
2023/08/13 00:19:47;;;;;;;3.83;3.00;;;18.60;99.90;;;;;;4996339;28;20030;-72
2023/08/13 00:22:13;;;;;;;5.82;3.83;;;18.70;99.90;;;;;;4996592;28;20027;-72
2023/08/13 00:24:39;;;;;;;5.57;3.30;;;18.70;99.90;;;;;;4996688;28;20061;-72
2023/08/13 00:27:04;;;;;;;8.93;3.95;;;18.60;99.90;;;;;;4995064;28;20072;-72
2023/08/13 00:29:31;;;;;;;5.43;3.67;;;18.60;99.90;;;;;;4996321;28;20030;-72
2023/08/13 00:31:57;;;;;;;4.72;3.50;;;18.50;99.90;;;;;;4996576;28;20436;-72
2023/08/13 00:34:23;;;;;;;4.75;3.42;;;18.50;99.90;;;;;;5001000;28;20030;-71
2023/08/13 00:36:48;;;;;;;4.45;3.25;;;18.40;99.90;;;;;;5015800;28;20387;-72
2023/08/13 00:39:14;;;;;;;6.57;3.47;;;18.40;99.90;;;;;;5014416;28;20026;-72
2023/08/13 00:41:40;;;;;;;5.90;3.42;;;18.40;99.90;;;;;;5015981;28;20030;-72
2023/08/13 00:44:05;;;;;;;4.68;3.63;;;18.50;99.90;;;;;;5015921;28;20083;-72
2023/08/13 00:46:32;;;;;;;6.80;3.83;;;18.40;99.90;;;;;;5016084;28;20038;-72
2023/08/13 00:48:59;;;;;;;7.97;3.33;;;18.30;99.90;;;;;;5015957;28;20040;-72
2023/08/13 00:51:28;;;;;;;4.78;3.20;;;18.40;99.90;;;;;;5016143;28;20037;-72
2023/08/13 00:53:54;;;;;;;4.45;2.95;;;18.40;99.90;;;;;;5015447;28;20496;-72
2023/08/13 00:56:21;;;;;;;4.45;3.00;;;18.30;99.90;;;;;;5015981;28;20036;-72
2023/08/13 00:58:47;;;;;;;4.18;2.90;;;18.30;99.90;;;;;;5015800;28;20056;-72
2023/08/13 01:01:13;;;;;;;6.43;2.80;;;18.30;99.90;;;;;;5015467;28;20496;-72
2023/08/13 01:03:39;;;;;;;6.55;3.80;;;18.20;99.90;;;;;;5016355;28;20113;-72
2023/08/13 01:06:32;;;;;;;4.93;3.20;;;18.10;99.90;;;;;;5022952;28;20053;-72
2023/08/13 01:09:13;;;;;;;4.15;2.88;;;18.10;99.90;;;;;;5015354;28;20030;-72
2023/08/13 01:11:57;;;;;;;4.43;3.17;;;18.00;99.90;;;;;;5015497;28;20054;-72
2023/08/13 01:14:51;;;;;;;5.82;3.15;;;18.00;99.90;;;;;;5015112;28;20026;-71
2023/08/13 01:17:17;;;;;;;6.85;3.70;;;17.90;99.90;;;;;;5015301;28;20361;-71
2023/08/13 01:19:43;;;;;;;5.15;3.50;;;17.80;99.90;;;;;;5013637;28;20519;-72
2023/08/13 01:22:09;;;;;;;4.65;3.03;;;17.80;99.90;;;;;;5015609;28;20038;-72
2023/08/13 01:24:35;;;;;;;5.07;2.92;;;17.70;99.90;;;;;;5015232;28;20022;-72
2023/08/13 01:27:18;;;;;;;5.38;2.83;;;17.80;99.90;;;;;;5014136;28;20052;-72
2023/08/13 01:30:17;;;;;;;4.68;3.08;;;17.70;99.90;;;;;;5015028;28;20030;-72
2023/08/13 01:32:58;;;;;;;3.78;3.00;;;17.70;99.90;;;;;;4981938;28;20029;-71
2023/08/13 01:35:25;;;;;;;5.15;3.05;;;17.80;99.90;;;;;;5015375;28;20018;-72
2023/08/13 01:37:52;;;;;;;3.47;2.53;;;17.80;99.90;;;;;;5015128;28;20030;-72
2023/08/13 01:40:17;;;;;;;4.95;3.20;;;17.80;99.90;;;;;;5013300;28;20022;-72
2023/08/13 01:42:43;;;;;;;4.05;2.85;;;17.80;99.90;;;;;;5013401;28;20116;-71
2023/08/13 01:45:09;;;;;;;4.20;3.00;;;17.80;99.90;;;;;;5014904;28;20025;-72
2023/08/13 01:47:35;;;;;;;5.90;3.50;;;17.80;99.90;;;;;;5014914;28;20044;-72
2023/08/13 01:50:01;;;;;;;5.10;3.25;;;17.80;99.90;;;;;;5015352;28;20072;-72
2023/08/13 01:52:26;;;;;;;4.00;3.03;;;17.80;99.90;;;;;;5014127;28;20038;-72
2023/08/13 01:54:53;;;;;;;4.60;3.20;;;17.70;99.90;;;;;;5015454;28;20065;-72
2023/08/13 01:57:18;;;;;;;5.53;3.10;;;17.70;99.90;;;;;;5013879;28;20037;-72
2023/08/13 01:59:44;;;;;;;4.32;2.88;;;17.60;99.90;;;;;;5014019;28;20026;-72
2023/08/13 02:02:10;;;;;;;4.18;3.00;;;17.60;99.90;;;;;;4997062;28;20124;-72
2023/08/13 02:04:35;;;;;;;5.57;2.72;;;17.60;99.90;;;;;;5015919;28;20036;-72
2023/08/13 02:07:01;;;;;;;4.60;2.72;;;17.60;99.90;;;;;;5015520;28;20072;-72
2023/08/13 02:09:27;;;;;;;4.85;2.88;;;17.60;99.90;;;;;;5015181;28;20440;-72
2023/08/13 02:11:52;;;;;;;5.40;3.17;;;17.60;99.90;;;;;;5014075;28;20388;-72
2023/08/13 02:14:18;;;;;;;4.97;2.83;;;17.60;99.90;;;;;;5015132;28;20033;-72
2023/08/13 02:16:43;;;;;;;4.45;2.65;;;17.70;99.90;;;;;;5015099;28;20037;-72
2023/08/13 02:19:09;;;;;;;3.67;2.78;;;17.70;99.90;;;;;;5014140;28;20042;-72
2023/08/13 02:21:35;;;;;;;5.68;3.05;;;17.60;99.90;;;;;;5014487;28;20084;-72
2023/08/13 02:24:00;;;;;;;5.45;3.00;;;17.60;99.90;;;;;;5014251;28;20022;-72
2023/08/13 02:26:26;;;;;;;6.00;3.22;;;17.50;99.90;;;;;;5017931;28;20112;-72
2023/08/13 02:28:52;;;;;;;4.50;3.00;;;17.50;99.90;;;;;;5018616;28;20050;-72
2023/08/13 02:31:17;;;;;;;3.55;2.70;;;17.50;99.90;;;;;;5018590;28;20022;-71
2023/08/13 02:33:43;;;;;;;6.82;2.28;;;17.60;99.90;;;;;;5018455;28;20075;-71
2023/08/13 02:36:08;;;;;;;3.60;2.58;;;17.60;99.90;;;;;;5018359;28;20079;-72
2023/08/13 02:38:34;;;;;;;5.00;3.15;;;17.70;99.90;;;;;;5018582;28;20061;-71
2023/08/13 02:41:00;;;;;;;4.57;2.83;;;17.70;99.90;;;;;;5017156;28;20399;-72
2023/08/13 02:43:30;;;;;;;5.30;3.03;;;17.60;99.90;;;;;;5019071;28;20037;-72
2023/08/13 02:45:56;;;;;;;3.45;2.53;;;17.60;99.90;;;;;;5018903;28;20030;-72
2023/08/13 02:48:21;;;;;;;4.68;3.40;;;17.60;99.90;;;;;;5018873;28;20507;-72
2023/08/13 02:50:47;;;;;;;4.43;3.33;;;17.60;99.90;;;;;;5016658;28;20022;-72
2023/08/13 02:53:13;;;;;;;5.45;3.45;;;17.50;99.90;;;;;;5018021;28;20064;-72
2023/08/13 02:55:38;;;;;;;4.70;2.97;;;17.50;99.90;;;;;;5016972;28;20072;-72
2023/08/13 02:58:04;;;;;;;5.70;3.08;;;17.50;99.90;;;;;;5018049;28;20068;-72
2023/08/13 03:00:30;;;;;;;5.18;3.20;;;17.40;99.90;;;;;;5018345;28;20037;-72
2023/08/13 03:02:55;;;;;;;4.22;2.88;;;17.40;99.90;;;;;;5018828;28;20041;-72
2023/08/13 03:05:21;;;;;;;5.75;3.30;;;17.50;99.90;;;;;;5018097;28;20030;-72
2023/08/13 03:07:47;;;;;;;3.40;2.60;;;17.50;99.90;;;;;;5017927;28;20034;-72
2023/08/13 03:10:12;;;;;;;4.78;2.95;;;17.50;99.90;;;;;;5018325;28;20084;-71
2023/08/13 03:12:38;;;;;;;4.93;2.92;;;17.60;99.90;;;;;;5017725;28;20057;-72
2023/08/13 03:15:04;;;;;;;4.20;3.13;;;17.60;99.90;;;;;;5017781;28;20025;-72
2023/08/13 03:17:30;;;;;;;3.83;3.00;;;17.60;99.90;;;;;;5017756;28;20037;-72
2023/08/13 03:19:57;;;;;;;4.43;3.13;;;17.70;99.90;;;;;;5016795;28;20423;-72
2023/08/13 03:22:23;;;;;;;5.10;3.42;;;17.60;99.90;;;;;;5017836;28;20026;-72
2023/08/13 03:24:48;;;;;;;4.53;3.10;;;17.60;99.90;;;;;;5017987;28;20034;-72
2023/08/13 03:27:14;;;;;;;4.88;2.88;;;17.60;99.90;;;;;;5016408;28;20033;-72
2023/08/13 03:29:40;;;;;;;4.43;3.00;;;17.60;99.90;;;;;;5017103;28;20026;-72
2023/08/13 03:32:05;;;;;;;5.00;2.88;;;17.60;99.90;;;;;;5017604;28;20034;-72
2023/08/13 03:34:31;;;;;;;4.47;2.55;;;17.60;99.90;;;;;;5017714;28;20026;-72
2023/08/13 03:36:57;;;;;;;3.08;2.55;;;17.60;99.90;;;;;;5016116;28;20453;-72
2023/08/13 03:39:22;;;;;;;5.15;2.80;;;17.60;99.90;;;;;;5017293;28;20026;-72
2023/08/13 03:41:48;;;;;;;4.07;2.80;;;17.60;99.90;;;;;;5017796;28;20072;-72
2023/08/13 03:44:13;;;;;;;5.47;2.80;;;17.70;99.90;;;;;;5016862;28;20038;-72
2023/08/13 03:46:39;;;;;;;5.40;3.50;;;17.60;99.90;;;;;;5017013;28;20033;-72
2023/08/13 03:49:05;;;;;;;5.53;3.60;;;17.50;99.90;;;;;;5017354;28;20034;-72
2023/08/13 03:51:30;;;;;;;4.10;3.50;;;17.40;99.90;;;;;;5017323;28;20030;-72
2023/08/13 03:53:56;;;;;;;6.35;3.58;;;17.40;99.90;;;;;;5016884;28;20480;-72
2023/08/13 03:56:24;;;;;;;4.93;3.35;;;17.40;99.90;;;;;;5016842;28;20479;-71
2023/08/13 03:58:50;;;;;;;4.50;3.25;;;17.40;99.90;;;;;;5016816;28;20030;-71
2023/08/13 04:01:16;;;;;;;5.20;3.10;;;17.40;99.90;;;;;;5017296;28;20488;-71
2023/08/13 04:03:42;;;;;;;4.32;2.70;;;17.40;99.90;;;;;;5017274;28;20030;-71
2023/08/13 04:06:07;;;;;;;3.90;2.90;;;17.40;99.90;;;;;;5016952;28;20088;-72
2023/08/13 04:08:35;;;;;;;3.72;2.50;;;17.40;99.90;;;;;;5016757;28;20037;-72
2023/08/13 04:11:01;;;;;;;3.50;2.70;;;17.50;99.90;;;;;;5015237;28;20510;-72
2023/08/13 04:13:27;;;;;;;4.93;2.67;;;17.50;99.90;;;;;;5016517;28;20030;-71
2023/08/13 04:15:52;;;;;;;4.07;2.47;;;17.50;99.90;;;;;;5016682;28;20439;-71
2023/08/13 04:18:18;;;;;;;8.32;2.80;;;17.50;99.90;;;;;;5016441;28;20451;-72
2023/08/13 04:20:44;;;;;;;6.00;2.70;;;17.40;99.90;;;;;;5016633;28;20518;-71
2023/08/13 04:23:10;;;;;;;3.97;2.72;;;17.40;99.90;;;;;;5016787;28;20037;-72
2023/08/13 04:25:35;;;;;;;4.32;2.63;;;17.30;99.90;;;;;;5015674;28;20072;-72
2023/08/13 04:28:02;;;;;;;4.38;2.67;;;17.30;99.90;;;;;;5016577;28;20030;-72
2023/08/13 04:30:28;;;;;;;4.05;2.45;;;17.30;99.90;;;;;;5016154;28;20105;-72
2023/08/13 04:32:54;;;;;;;7.22;2.40;;;17.20;99.90;;;;;;5016507;28;20061;-72
2023/08/13 04:35:21;;;;;;;3.30;2.50;;;17.30;99.90;;;;;;5016707;28;20084;-71
2023/08/13 04:37:46;;;;;;;4.78;2.78;;;17.30;99.90;;;;;;5016355;28;20061;-71
2023/08/13 04:40:12;;;;;;;6.90;3.50;;;17.30;99.90;;;;;;5016401;28;20030;-72
2023/08/13 04:42:38;;;;;;;5.35;3.63;;;17.20;99.90;;;;;;5016589;28;20088;-71
2023/08/13 04:45:04;;;;;;;5.82;4.15;;;17.20;99.90;;;;;;5015031;28;20053;-71
2023/08/13 04:47:30;;;;;;;4.28;3.70;;;17.10;99.90;;;;;;5015977;28;20492;-71
2023/08/13 04:49:55;;;;;;;4.43;3.70;;;17.00;99.90;;;;;;5016336;28;20034;-71
2023/08/13 04:52:21;;;;;;;5.55;4.25;;;17.00;99.90;;;;;;5016024;28;20022;-71
2023/08/13 04:54:47;;;;;;;4.20;3.42;;;16.90;99.90;;;;;;5015114;28;20065;-71
2023/08/13 04:57:13;;;;;;;4.20;2.63;;;16.90;99.90;;;;;;5016292;28;20022;-71
2023/08/13 04:59:39;;;;;;;4.15;2.65;;;17.00;99.90;;;;;;5014516;28;20492;-71
2023/08/13 05:02:04;;;;;;;5.53;2.50;;;17.00;99.90;;;;;;5014665;28;20037;-71
2023/08/13 05:04:30;;;;;;;5.07;2.90;;;17.00;99.90;;;;;;5014722;28;20097;-72
2023/08/13 05:06:56;;;;;;;3.33;2.35;;;17.00;99.90;;;;;;5015548;28;20026;-72
2023/08/13 05:09:21;;;;;;;5.10;2.95;;;17.00;99.90;;;;;;5014363;28;20041;-71
2023/08/13 05:11:47;;;;;;;3.30;2.50;;;17.10;99.90;;;;;;5014330;28;20547;-72
2023/08/13 05:14:13;;;;;;;5.50;2.88;;;17.10;99.90;;;;;;5014177;28;20037;-71
2023/08/13 05:16:38;;;;;;;4.22;2.92;;;17.20;99.90;;;;;;5014154;28;20161;-71
2023/08/13 05:19:04;;;;;;;4.55;2.80;;;17.20;99.90;;;;;;4995087;28;20042;-71
2023/08/13 05:21:30;;;;;;;6.95;2.50;;;17.20;99.90;;;;;;4994466;28;20102;-71
2023/08/13 05:23:56;;;;;;;3.33;2.33;;;17.30;99.90;;;;;;4994764;28;20038;-71
2023/08/13 05:26:21;;;;;;;3.95;2.85;;;17.30;99.90;;;;;;4994470;28;20110;-71
2023/08/13 05:28:47;;;;;;;4.75;2.72;;;17.30;99.90;;;;;;4994588;28;20441;-71
2023/08/13 05:31:13;;;;;;;4.10;2.55;;;17.30;99.90;;;;;;4994381;28;20026;-71
2023/08/13 05:33:39;;;;;;;4.57;2.63;;;17.40;99.90;;;;;;4994420;28;20080;-71
2023/08/13 05:36:05;;;;;;;4.13;2.88;;;17.40;99.90;;;;;;4993369;28;20034;-71
2023/08/13 05:38:32;;;;;;;3.25;2.50;;;17.40;99.90;;;;;;4993204;28;20023;-72
2023/08/13 05:40:58;;;;;;;4.65;2.88;;;17.40;99.90;;;;;;4976827;28;20117;-72
2023/08/13 05:43:24;;;;;;;4.75;2.53;;;17.40;99.90;;;;;;4994539;28;20106;-71
2023/08/13 05:45:49;;;;;;;4.10;2.58;;;17.40;99.90;;;;;;4994164;28;20050;-71
2023/08/13 05:48:15;;;;;;;3.63;2.50;;;17.50;99.90;;;;;;4994054;28;20432;-72
2023/08/13 05:50:41;;;;;;;3.00;2.50;;;17.50;99.90;;;;;;4993278;28;20029;-71
2023/08/13 05:53:06;;;;;;;3.47;2.60;;;17.50;99.90;;;;;;4994089;28;20022;-71
2023/08/13 05:55:32;;;;;;;4.32;2.90;;;17.50;99.90;;;;;;4994048;28;20053;-71
2023/08/13 05:57:58;;;;;;;4.18;2.50;;;17.50;99.90;;;;;;4994110;28;20035;-71
2023/08/13 06:00:24;;;;;;;3.40;2.63;;;17.50;99.90;;;;;;4993346;28;20492;-71
2023/08/13 06:02:50;;;;;;;3.80;2.58;;;17.50;99.90;;;;;;4993986;28;20500;-71
2023/08/13 06:05:15;;;;;;;3.97;2.80;;;17.50;99.90;;;;;;4993990;28;20114;-71
2023/08/13 06:07:41;;;;;;;4.15;3.00;;;17.60;99.90;;;;;;4994441;28;20389;-71
2023/08/13 06:10:07;;;;;;;4.85;3.25;;;17.60;99.90;;;;;;4993769;28;20085;-71
2023/08/13 06:12:33;;;;;;;4.53;2.95;;;17.70;99.90;;;;;;4993912;28;20023;-71
2023/08/13 06:14:59;;;;;;;4.60;3.00;;;17.70;99.90;;;;;;4993845;28;20031;-71
2023/08/13 06:17:25;;;;;;;3.65;2.55;;;17.80;99.90;;;;;;4994052;28;20018;-71
2023/08/13 06:19:51;;;;;;;4.18;2.55;;;17.90;99.90;;;;;;4993757;28;20050;-71
2023/08/13 06:22:17;;;;;;;4.22;2.88;;;17.90;99.90;;;;;;4993812;28;20051;-71
2023/08/13 06:24:42;;;;;;;4.13;2.80;;;18.00;99.90;;;;;;4994310;28;20037;-71
2023/08/13 06:27:08;;;;;;;4.65;2.92;;;18.00;99.90;;;;;;4994004;28;20497;-71
2023/08/13 06:29:34;;;;;;;4.20;3.00;;;18.00;99.90;;;;;;4993769;28;20034;-71
2023/08/13 06:31:59;;;;;;;4.05;2.85;;;18.10;99.90;;;;;;4992662;28;20481;-71
2023/08/13 06:34:26;;;;;;;5.07;2.90;;;18.10;99.90;;;;;;4992340;28;20030;-71
2023/08/13 06:36:53;;;;;;;4.07;2.92;;;18.20;99.90;;;;;;4993733;28;20088;-71
2023/08/13 06:39:19;;;;;;;5.28;3.30;;;18.30;99.90;;;;;;4993616;28;20130;-72
2023/08/13 06:41:45;;;;;;;6.45;2.95;;;18.30;99.90;;;;;;4992421;28;20031;-72
2023/08/13 06:44:19;;;;;;;5.20;3.10;;;18.40;99.90;;;;;;4993557;28;20037;-71
2023/08/13 06:46:48;;;;;;;4.38;2.80;;;18.50;99.90;;;;;;4993530;28;20022;-71
2023/08/13 06:49:14;;;;;;;3.63;2.70;;;18.50;99.90;;;;;;4993422;28;20146;-71
2023/08/13 06:51:40;;;;;;;3.88;2.60;;;18.60;99.90;;;;;;4993330;28;20034;-71
2023/08/13 06:54:06;;;;;;;5.50;2.83;;;18.70;99.90;;;;;;4992042;28;20027;-71
2023/08/13 06:56:34;;;;;;;4.05;3.22;;;18.70;99.90;;;;;;4993403;28;20126;-71
2023/08/13 06:58:59;;;;;;;4.10;3.05;;;18.80;99.90;;;;;;4993411;28;20034;-71
2023/08/13 07:01:25;;;;;;;3.80;2.63;;;18.90;99.90;;;;;;4993425;28;20108;-71
2023/08/13 07:03:51;;;;;;;4.05;2.97;;;19.00;99.90;;;;;;4993721;28;20054;-71
2023/08/13 07:06:16;;;;;;;4.85;2.47;;;19.20;99.90;;;;;;4993639;28;20446;-71
2023/08/13 07:08:42;;;;;;;3.83;2.78;;;19.20;99.90;;;;;;4993576;28;20026;-71
2023/08/13 07:11:08;;;;;;;3.67;2.75;;;19.40;99.90;;;;;;4994717;28;20069;-71
2023/08/13 07:13:33;;;;;;;5.15;2.88;;;19.40;99.90;;;;;;4996442;28;20493;-71
2023/08/13 07:15:59;;;;;;;3.75;2.50;;;19.40;99.90;;;;;;4996943;28;20400;-71
2023/08/13 07:18:25;;;;;;;3.55;2.50;;;19.50;99.90;;;;;;4995471;28;20451;-71
2023/08/13 07:20:50;;;;;;;4.13;2.90;;;19.50;99.90;;;;;;4996964;28;20030;-71
2023/08/13 07:23:16;;;;;;;4.88;2.90;;;19.50;99.90;;;;;;4996751;28;20030;-71
2023/08/13 07:25:42;;;;;;;4.45;2.95;;;19.60;99.90;;;;;;4996794;28;20489;-72
2023/08/13 07:28:08;;;;;;;5.18;2.90;;;19.70;99.90;;;;;;4996680;28;20030;-72
2023/08/13 07:30:34;;;;;;;4.20;2.80;;;19.80;99.90;;;;;;4996801;28;20023;-72
2023/08/13 07:33:00;;;;;;;3.08;2.65;;;19.90;99.90;;;;;;4996607;28;20026;-72
2023/08/13 07:35:25;;;;;;;4.15;2.88;;;19.90;99.90;;;;;;4996630;28;20033;-72
2023/08/13 07:37:52;;;;;;;3.95;3.08;;;19.90;99.90;;;;;;4996423;28;20097;-72
2023/08/13 07:40:18;;;;;;;4.72;3.25;;;20.10;99.90;;;;;;4996368;28;20097;-72
2023/08/13 07:42:44;;;;;;;5.22;3.05;;;20.10;99.90;;;;;;4996394;28;20058;-72
2023/08/13 07:45:10;;;;;;;5.72;3.40;;;20.30;99.90;;;;;;4996619;28;20026;-72
2023/08/13 07:47:37;;;;;;;4.25;3.28;;;20.40;99.90;;;;;;4994630;28;20090;-72
2023/08/13 07:50:04;;;;;;;4.95;3.22;;;20.50;99.90;;;;;;4995645;28;20429;-72
2023/08/13 07:52:31;;;;;;;5.20;3.38;;;20.60;99.90;;;;;;4995772;28;20038;-72
2023/08/13 07:54:57;;;;;;;7.15;3.40;;;20.70;99.90;;;;;;4995709;28;20023;-72
2023/08/13 07:57:23;;;;;;;3.63;3.05;;;20.80;99.90;;;;;;4995614;28;20038;-72
2023/08/13 07:59:49;;;;;;;4.30;2.92;;;20.90;99.90;;;;;;4995817;28;20073;-72
2023/08/13 08:02:15;;;;;;;4.57;2.95;;;21.00;99.90;;;;;;4996099;28;20101;-72
2023/08/13 08:04:42;;;;;;;4.78;2.95;;;21.20;99.90;;;;;;4996015;28;20113;-72
2023/08/13 08:07:07;;;;;;;3.42;2.50;;;21.30;99.90;;;;;;4995980;28;20512;-72
2023/08/13 08:09:33;;;;;;;5.72;2.83;;;21.50;99.90;;;;;;4995751;28;20098;-72
2023/08/13 08:11:59;;;;;;;5.75;2.80;;;21.70;99.90;;;;;;4995916;28;20027;-72
2023/08/13 08:14:25;;;;;;;4.68;2.60;;;21.80;99.90;;;;;;4995856;28;20385;-72
2023/08/13 08:16:54;;;;;;;4.05;2.58;;;22.00;99.90;;;;;;4994523;28;20061;-72
2023/08/13 08:19:20;;;;;;;5.30;2.42;;;22.10;99.90;;;;;;4995669;28;20049;-72
2023/08/13 08:21:46;;;;;;;3.75;2.70;;;22.30;99.90;;;;;;4995799;28;20060;-72
2023/08/13 08:24:11;;;;;;;4.30;2.47;;;22.40;99.90;;;;;;4993921;28;20038;-72
2023/08/13 08:26:37;;;;;;;7.05;2.95;;;22.60;99.90;;;;;;4995801;28;20102;-72
2023/08/13 08:29:03;;;;;;;4.25;2.92;;;22.70;99.90;;;;;;4995454;28;20081;-72
2023/08/13 08:31:28;;;;;;;5.78;2.60;;;22.80;99.90;;;;;;4995534;28;20374;-72
2023/08/13 08:33:54;;;;;;;4.03;2.85;;;22.90;99.90;;;;;;4994401;28;20022;-72
2023/08/13 08:36:20;;;;;;;4.72;2.65;;;23.00;99.90;;;;;;4995361;28;20035;-72
2023/08/13 08:38:45;;;;;;;4.80;2.60;;;23.10;99.90;;;;;;4995296;28;20113;-73
2023/08/13 08:41:12;;;;;;;3.95;2.60;;;23.20;99.90;;;;;;4994102;28;20034;-73
2023/08/13 08:43:41;;;;;;;4.55;2.88;;;23.30;99.90;;;;;;4995686;28;20022;-73
2023/08/13 08:46:09;;;;;;;4.78;3.17;;;23.40;99.90;;;;;;4995345;28;20034;-73
2023/08/13 08:48:36;;;;;;;3.53;2.40;;;23.50;99.90;;;;;;4995082;28;20022;-73
2023/08/13 08:51:02;;;;;;;4.57;2.80;;;23.70;99.90;;;;;;4995143;28;20027;-73
2023/08/13 08:53:28;;;;;;;3.45;2.47;;;23.80;99.90;;;;;;4995137;28;20019;-73
2023/08/13 08:55:54;;;;;;;3.70;2.83;;;23.90;99.90;;;;;;4995379;28;20076;-72
2023/08/13 08:58:20;;;;;;;4.22;3.22;;;24.00;99.90;;;;;;4994925;28;20031;-72
2023/08/13 09:00:46;;;;;;;3.85;2.60;;;24.20;99.90;;;;;;4994915;28;20037;-72
2023/08/13 09:03:12;;;;;;;4.18;2.60;;;24.40;99.90;;;;;;4994860;28;20436;-72
2023/08/13 09:05:40;;;;;;;4.93;3.05;;;24.50;99.90;;;;;;4994952;28;20035;-73
2023/08/13 09:08:13;;;;;;;10.98;3.67;;;24.60;99.90;;;;;;4995009;28;20041;-73
2023/08/13 09:10:42;;;;;;;3.75;2.90;;;24.70;99.90;;;;;;4994042;28;20029;-73
2023/08/13 09:13:09;;;;;;;4.93;2.88;;;24.80;99.90;;;;;;4994796;28;20073;-73
2023/08/13 09:15:42;;;;;;;3.83;3.05;;;24.90;99.90;;;;;;4995082;28;20034;-73
2023/08/13 09:18:10;;;;;;;4.45;3.10;;;24.90;99.90;;;;;;4994536;28;20407;-73
2023/08/13 09:20:42;;;;;;;4.68;2.90;;;25.00;99.90;;;;;;4994902;28;20037;-73
2023/08/13 09:23:08;;;;;;;4.32;3.00;;;25.20;99.90;;;;;;4995241;28;20037;-73
2023/08/13 09:25:35;;;;;;;3.97;2.85;;;25.30;99.90;;;;;;4994492;28;20109;-73
2023/08/13 09:28:01;;;;;;;5.20;3.25;;;25.40;99.90;;;;;;4994480;28;20033;-73
2023/08/13 09:30:31;;;;;;;5.00;3.20;;;25.50;99.90;;;;;;4994507;28;20035;-73
2023/08/13 09:32:58;;;;;;;3.85;2.90;;;25.60;99.90;;;;;;4994638;28;20109;-73
2023/08/13 09:35:24;;;;;;;3.83;2.70;;;25.60;99.90;;;;;;5006657;28;20076;-73
2023/08/13 09:37:51;;;;;;;6.13;3.10;;;25.80;99.90;;;;;;5014015;28;20499;-73
2023/08/13 09:40:17;;;;;;;4.45;3.00;;;25.90;99.90;;;;;;5013941;28;20021;-73
2023/08/13 09:42:43;;;;;;;4.55;3.35;;;26.00;99.90;;;;;;5013914;28;20541;-73
2023/08/13 09:45:10;;;;;;;4.90;3.55;;;26.10;99.90;;;;;;5013064;28;20461;-74
2023/08/13 09:47:39;;;;;;;5.18;3.30;;;26.30;99.90;;;;;;5013731;28;20112;-73
2023/08/13 09:50:06;;;;;;;4.82;3.53;;;26.40;99.90;;;;;;5013803;28;20391;-73
2023/08/13 09:52:33;;;;;;;5.90;3.13;;;26.50;99.90;;;;;;5022886;28;20088;-73
2023/08/13 09:55:10;;;;;;;5.03;3.30;;;26.60;99.90;;;;;;5018802;28;20106;-73
2023/08/13 09:57:39;;;;;;;5.60;3.30;;;26.80;99.90;;;;;;5013234;28;20018;-73
2023/08/13 10:00:07;;;;;;;4.13;3.03;;;26.90;99.90;;;;;;5017318;28;20021;-73
2023/08/13 10:02:33;;;;;;;5.72;3.42;;;27.00;99.90;;;;;;5013193;28;20026;-74
2023/08/13 10:05:00;;;;;;;4.65;3.13;;;27.10;99.90;;;;;;5015763;28;20443;-74
2023/08/13 10:07:26;;;;;;;4.00;3.10;;;27.20;99.90;;;;;;5013196;28;20026;-74
2023/08/13 10:09:53;;;;;;;10.07;3.40;;;27.30;99.90;;;;;;5014866;28;20045;-74
2023/08/13 10:12:19;;;;;;;4.25;3.20;;;27.40;99.90;;;;;;5013295;28;20428;-74
2023/08/13 10:14:44;;;;;;;4.55;2.95;;;27.40;99.90;;;;;;5013297;28;20026;-74
2023/08/13 10:17:17;;;;;;;6.55;3.33;;;27.40;99.90;;;;;;5013309;28;20038;-74
2023/08/13 10:19:49;;;;;;;4.20;3.17;;;27.60;99.90;;;;;;5013166;28;20040;-74
2023/08/13 10:22:34;;;;;;;6.47;3.45;;;27.70;99.90;;;;;;5012355;28;20515;-74
2023/08/13 10:25:00;;;;;;;4.38;3.33;;;27.80;99.90;;;;;;5013185;28;20042;-74
2023/08/13 10:27:33;;;;;;;4.95;3.25;;;27.90;99.90;;;;;;5013835;28;20043;-74
2023/08/13 10:30:09;;;;;;;5.72;3.35;;;28.10;99.90;;;;;;4994311;28;20504;-74
2023/08/13 10:32:59;;;;;;;4.20;3.40;;;28.20;99.90;;;;;;5012640;28;20030;-74
2023/08/13 10:35:29;;;;;;;3.80;2.83;;;28.30;99.90;;;;;;5005623;28;20038;-74
2023/08/13 10:37:59;;;;;;;5.18;3.50;;;28.40;99.90;;;;;;5013256;28;20017;-74
2023/08/13 10:40:25;;;;;;;4.93;3.47;;;28.50;99.90;;;;;;5013010;28;20068;-74
2023/08/13 10:42:56;;;;;;;5.95;3.30;;;28.70;99.90;;;;;;5014458;28;20092;-74
2023/08/13 10:45:35;;;;;;;5.80;3.28;;;28.80;99.90;;;;;;5012886;28;20022;-74
2023/08/13 10:48:06;;;;;;;4.82;3.15;;;28.80;99.90;;;;;;5016804;28;20030;-74
2023/08/13 10:50:32;;;;;;;;;;;29.00;99.90;;;;;;5016673;28;20026;-74
2023/08/13 10:53:04;;;;;;;;;;;29.10;99.90;;;;;;5014080;28;19912;-74
2023/08/13 10:55:31;;;;;;;;;;;29.30;99.90;;;;;;5018485;28;20000;-74
2023/08/13 10:57:57;;;;;;;;;;;29.30;99.00;;;;;;5018415;28;20342;-74
2023/08/13 11:00:24;;;;;;;;;;;29.40;98.00;;;;;;5018228;28;19968;-74
2023/08/13 11:02:50;;;;;;;;;;;29.50;96.90;;;;;;5019019;28;19988;-75
2023/08/13 11:05:15;;;;;;;;;;;29.50;98.00;;;;;;5019700;28;19948;-74
2023/08/13 11:07:42;;;;;;;;;;;29.60;97.50;;;;;;5017131;28;20347;-74
2023/08/13 11:10:08;;;;;;;;;;;29.60;96.80;;;;;;5019751;28;19912;-75
2023/08/13 11:12:33;;;;;;;;;;;29.70;96.30;;;;;;5019816;28;20364;-74
2023/08/13 11:15:02;;;;;;;;;;;29.80;96.10;;;;;;5016373;28;19918;-75
2023/08/13 11:17:27;;;;;;;;;;;29.80;95.30;;;;;;5015527;28;19909;-75
2023/08/13 11:19:57;;;;;;;;;;;29.90;96.00;;;;;;5016836;28;19909;-74
2023/08/13 11:22:23;;;;;;;;;;;30.00;95.90;;;;;;5016919;28;19960;-75
2023/08/13 11:24:49;;;;;;;;;;;30.10;95.00;;;;;;5017055;28;19909;-75
2023/08/13 11:27:14;;;;;;;;;;;30.20;95.20;;;;;;5016126;28;19957;-76
2023/08/13 11:29:40;;;;;;;;;;;30.20;93.80;;;;;;5014840;28;20004;-75
2023/08/13 11:32:05;;;;;;;;;;;30.30;95.00;;;;;;5017126;28;20418;-75
2023/08/13 11:34:31;;;;;;;;;;;30.40;92.50;;;;;;5005631;28;20364;-75
2023/08/13 11:36:56;;;;;;;;;;;30.50;92.80;;;;;;4996780;28;19968;-75
2023/08/13 11:39:23;;;;;;;;;;;30.50;94.10;;;;;;4996702;28;19910;-75
2023/08/13 11:41:50;;;;;;;;;;;30.70;92.10;;;;;;4996900;28;19913;-74
2023/08/13 11:44:16;;;;;;;;;;;30.80;91.50;;;;;;4995612;28;20327;-75
2023/08/13 11:46:52;;;;;;;;;;;30.90;91.90;;;;;;4995633;28;20048;-75
2023/08/13 11:49:17;;;;;;;;;;;30.90;90.80;;;;;;4996601;28;19941;-75
2023/08/13 11:51:43;;;;;;;;;;;31.10;91.30;;;;;;4997036;28;19949;-75
2023/08/13 11:54:08;;;;;;;;;;;31.20;90.90;;;;;;4996772;28;20383;-75
2023/08/13 11:56:34;;;;;;;;;;;31.30;90.60;;;;;;4996833;28;20001;-75
2023/08/13 11:59:00;;;;;;;;;;;31.40;88.40;;;;;;4995655;28;19913;-75
2023/08/13 12:01:25;;;;;;;;;;;31.50;85.60;;;;;;4996776;28;19913;-75
2023/08/13 12:03:51;;;;;;;;;;;31.50;83.90;;;;;;4996478;28;20395;-75
2023/08/13 12:06:16;;;;;;;;;;;31.70;82.60;;;;;;4995214;28;19909;-75
2023/08/13 12:08:46;;;;;;;;;;;31.80;82.00;;;;;;4996230;28;20265;-75
2023/08/13 12:11:11;;;;;;;;;;;31.80;74.80;;;;;;4996531;28;19917;-75
2023/08/13 12:13:45;;;;;;;;;;;32.00;72.10;;;;;;4996656;28;19913;-75
2023/08/13 12:16:10;;;;;;;;;;;32.00;67.00;;;;;;4996705;28;20000;-74
2023/08/13 12:18:36;;;;;;;;;;;32.10;66.70;;;;;;4996069;28;20374;-75
2023/08/13 12:21:02;;;;;;;;;;;32.20;64.70;;;;;;4996225;28;19910;-75
2023/08/13 12:23:28;;;;;;;;;;;32.30;63.80;;;;;;4996564;28;19980;-75
2023/08/13 12:25:53;;;;;;;;;;;32.30;63.90;;;;;;4996133;28;19959;-76
2023/08/13 12:28:19;;;;;;;;;;;32.30;63.90;;;;;;4996180;28;20315;-75
2023/08/13 12:30:44;;;;;;;;;;;32.30;64.20;;;;;;4996005;28;19917;-74
2023/08/13 12:33:10;;;;;;;;;;;32.40;63.90;;;;;;4995882;28;20335;-74
2023/08/13 12:35:36;;;;;;;;;;;32.40;66.10;;;;;;4996049;28;20265;-75
2023/08/13 12:38:01;;;;;;;;;;;32.50;65.70;;;;;;4995798;28;20434;-75
2023/08/13 12:40:27;;;;;;;;;;;32.60;65.90;;;;;;4995712;28;20331;-75
2023/08/13 12:42:53;;;;;;;;;;;32.60;62.40;;;;;;4995903;28;20275;-75
2023/08/13 12:45:19;;;;;;;;;;;32.70;63.80;;;;;;4994055;28;19905;-75
2023/08/13 12:47:44;;;;;;;;;;;32.70;64.30;;;;;;4994731;28;19910;-76
2023/08/13 12:50:10;;;;;;;;;;;32.70;63.00;;;;;;4994195;28;19910;-76
2023/08/13 12:52:35;;;;;;;;;;;32.80;63.70;;;;;;4995634;28;19913;-76
2023/08/13 12:55:01;;;;;;;;;;;32.90;65.80;;;;;;4994310;28;20384;-76
2023/08/13 12:57:27;;;;;;;;;;;32.90;66.20;;;;;;4995449;28;20320;-75